sensor_id;sensor_type;location;lat;lon;timestamp;temperature;humidity
21244;DHT22;10780;50.942;4.028;2023-06-04T00:00:37;15.00;99.90
21244;DHT22;10780;50.942;4.028;2023-06-04T00:03:03;15.00;99.90
21244;DHT22;10780;50.942;4.028;2023-06-04T00:05:28;15.00;99.90
21244;DHT22;10780;50.942;4.028;2023-06-04T00:07:54;14.90;99.90
21244;DHT22;10780;50.942;4.028;2023-06-04T00:10:19;14.80;99.90
21244;DHT22;10780;50.942;4.028;2023-06-04T00:12:45;14.80;99.90
21244;DHT22;10780;50.942;4.028;2023-06-04T00:15:11;14.80;99.90
21244;DHT22;10780;50.942;4.028;2023-06-04T00:17:36;14.80;99.90
21244;DHT22;10780;50.942;4.028;2023-06-04T00:20:02;14.80;99.90
21244;DHT22;10780;50.942;4.028;2023-06-04T00:22:28;14.80;99.90
21244;DHT22;10780;50.942;4.028;2023-06-04T00:24:54;14.70;99.90
21244;DHT22;10780;50.942;4.028;2023-06-04T00:27:19;14.60;99.90
21244;DHT22;10780;50.942;4.028;2023-06-04T00:29:45;14.60;99.90
21244;DHT22;10780;50.942;4.028;2023-06-04T00:32:11;14.60;99.90
21244;DHT22;10780;50.942;4.028;2023-06-04T00:34:36;14.50;99.90
21244;DHT22;10780;50.942;4.028;2023-06-04T00:37:02;14.60;99.90
21244;DHT22;10780;50.942;4.028;2023-06-04T00:39:28;14.60;99.90
21244;DHT22;10780;50.942;4.028;2023-06-04T00:41:54;14.70;99.90
21244;DHT22;10780;50.942;4.028;2023-06-04T00:44:20;14.60;99.90
21244;DHT22;10780;50.942;4.028;2023-06-04T00:46:47;14.50;99.90
21244;DHT22;10780;50.942;4.028;2023-06-04T00:49:14;14.50;99.90
21244;DHT22;10780;50.942;4.028;2023-06-04T00:51:40;14.50;99.90
21244;DHT22;10780;50.942;4.028;2023-06-04T00:54:07;14.50;99.90
21244;DHT22;10780;50.942;4.028;2023-06-04T00:56:37;14.50;99.90
21244;DHT22;10780;50.942;4.028;2023-06-04T00:59:05;14.30;99.90
21244;DHT22;10780;50.942;4.028;2023-06-04T01:04:15;14.10;99.90
21244;DHT22;10780;50.942;4.028;2023-06-04T01:06:47;14.10;99.90
21244;DHT22;10780;50.942;4.028;2023-06-04T01:09:15;14.10;99.90
21244;DHT22;10780;50.942;4.028;2023-06-04T01:11:41;14.10;99.90
21244;DHT22;10780;50.942;4.028;2023-06-04T01:14:08;14.00;99.90
21244;DHT22;10780;50.942;4.028;2023-06-04T01:16:57;13.90;99.90
21244;DHT22;10780;50.942;4.028;2023-06-04T01:19:52;13.90;99.90
21244;DHT22;10780;50.942;4.028;2023-06-04T01:22:33;13.80;99.90
21244;DHT22;10780;50.942;4.028;2023-06-04T01:25:09;13.70;99.90
21244;DHT22;10780;50.942;4.028;2023-06-04T01:27:37;13.80;99.90
21244;DHT22;10780;50.942;4.028;2023-06-04T01:30:07;13.80;99.90
21244;DHT22;10780;50.942;4.028;2023-06-04T01:32:33;13.70;99.90
21244;DHT22;10780;50.942;4.028;2023-06-04T01:34:59;13.70;99.90
21244;DHT22;10780;50.942;4.028;2023-06-04T01:37:25;13.60;99.90
21244;DHT22;10780;50.942;4.028;2023-06-04T01:39:51;13.60;99.90
21244;DHT22;10780;50.942;4.028;2023-06-04T01:42:17;13.70;99.90
21244;DHT22;10780;50.942;4.028;2023-06-04T01:44:43;13.80;99.90
21244;DHT22;10780;50.942;4.028;2023-06-04T01:47:08;13.70;99.90
21244;DHT22;10780;50.942;4.028;2023-06-04T01:49:34;13.60;99.90
21244;DHT22;10780;50.942;4.028;2023-06-04T01:51:59;13.60;99.90
21244;DHT22;10780;50.942;4.028;2023-06-04T01:54:25;13.60;99.90
21244;DHT22;10780;50.942;4.028;2023-06-04T01:56:51;13.50;99.90
21244;DHT22;10780;50.942;4.028;2023-06-04T01:59:16;13.50;99.90
21244;DHT22;10780;50.942;4.028;2023-06-04T02:01:42;13.40;99.90
21244;DHT22;10780;50.942;4.028;2023-06-04T02:04:08;13.40;99.90
21244;DHT22;10780;50.942;4.028;2023-06-04T02:06:33;13.40;99.90
21244;DHT22;10780;50.942;4.028;2023-06-04T02:08:59;13.40;99.90
21244;DHT22;10780;50.942;4.028;2023-06-04T02:11:25;13.50;99.90
21244;DHT22;10780;50.942;4.028;2023-06-04T02:13:51;13.40;99.90
21244;DHT22;10780;50.942;4.028;2023-06-04T02:16:17;13.50;99.90
21244;DHT22;10780;50.942;4.028;2023-06-04T02:18:42;13.60;99.90
21244;DHT22;10780;50.942;4.028;2023-06-04T02:21:08;13.50;99.90
21244;DHT22;10780;50.942;4.028;2023-06-04T02:23:33;13.50;99.90
21244;DHT22;10780;50.942;4.028;2023-06-04T02:25:59;13.50;99.90
21244;DHT22;10780;50.942;4.028;2023-06-04T02:28:25;13.40;99.90
21244;DHT22;10780;50.942;4.028;2023-06-04T02:30:51;13.40;99.90
21244;DHT22;10780;50.942;4.028;2023-06-04T02:33:16;13.50;99.90
21244;DHT22;10780;50.942;4.028;2023-06-04T02:35:42;13.50;99.90
21244;DHT22;10780;50.942;4.028;2023-06-04T02:38:08;13.50;99.90
21244;DHT22;10780;50.942;4.028;2023-06-04T02:40:33;13.50;99.90
21244;DHT22;10780;50.942;4.028;2023-06-04T02:42:59;13.50;99.90
21244;DHT22;10780;50.942;4.028;2023-06-04T02:45:25;13.40;99.90
21244;DHT22;10780;50.942;4.028;2023-06-04T02:47:50;13.50;99.90
21244;DHT22;10780;50.942;4.028;2023-06-04T02:50:16;13.60;99.90
21244;DHT22;10780;50.942;4.028;2023-06-04T02:52:42;13.50;99.90
21244;DHT22;10780;50.942;4.028;2023-06-04T02:55:08;13.40;99.90
21244;DHT22;10780;50.942;4.028;2023-06-04T02:57:35;13.50;99.90
21244;DHT22;10780;50.942;4.028;2023-06-04T03:00:01;13.40;99.90
21244;DHT22;10780;50.942;4.028;2023-06-04T03:02:27;13.30;99.90
21244;DHT22;10780;50.942;4.028;2023-06-04T03:04:53;13.50;99.90
21244;DHT22;10780;50.942;4.028;2023-06-04T03:07:20;13.40;99.90
21244;DHT22;10780;50.942;4.028;2023-06-04T03:09:48;13.30;99.90
21244;DHT22;10780;50.942;4.028;2023-06-04T03:12:14;13.20;99.90
21244;DHT22;10780;50.942;4.028;2023-06-04T03:14:40;13.00;99.90
21244;DHT22;10780;50.942;4.028;2023-06-04T03:17:05;12.80;99.90
21244;DHT22;10780;50.942;4.028;2023-06-04T03:19:40;12.70;99.90
21244;DHT22;10780;50.942;4.028;2023-06-04T03:22:08;12.70;99.90
21244;DHT22;10780;50.942;4.028;2023-06-04T03:24:39;12.70;99.90
21244;DHT22;10780;50.942;4.028;2023-06-04T03:27:06;12.70;99.90
21244;DHT22;10780;50.942;4.028;2023-06-04T03:29:33;12.70;99.90
21244;DHT22;10780;50.942;4.028;2023-06-04T03:31:59;12.60;99.90
21244;DHT22;10780;50.942;4.028;2023-06-04T03:34:25;12.60;99.90
21244;DHT22;10780;50.942;4.028;2023-06-04T03:36:54;12.80;99.90
21244;DHT22;10780;50.942;4.028;2023-06-04T03:39:21;13.00;99.90
21244;DHT22;10780;50.942;4.028;2023-06-04T03:41:47;13.10;99.90
21244;DHT22;10780;50.942;4.028;2023-06-04T03:44:13;13.20;99.90
21244;DHT22;10780;50.942;4.028;2023-06-04T03:46:40;13.20;99.90
21244;DHT22;10780;50.942;4.028;2023-06-04T03:49:06;13.20;99.90
21244;DHT22;10780;50.942;4.028;2023-06-04T03:51:32;13.10;99.90
21244;DHT22;10780;50.942;4.028;2023-06-04T03:53:58;13.10;99.90
21244;DHT22;10780;50.942;4.028;2023-06-04T03:56:24;12.90;99.90
21244;DHT22;10780;50.942;4.028;2023-06-04T03:58:52;12.80;99.90
21244;DHT22;10780;50.942;4.028;2023-06-04T04:01:18;12.80;99.90
21244;DHT22;10780;50.942;4.028;2023-06-04T04:03:44;13.00;99.90
21244;DHT22;10780;50.942;4.028;2023-06-04T04:06:14;13.00;99.90
21244;DHT22;10780;50.942;4.028;2023-06-04T04:08:40;13.00;99.90
21244;DHT22;10780;50.942;4.028;2023-06-04T04:11:13;13.00;99.90
21244;DHT22;10780;50.942;4.028;2023-06-04T04:13:38;13.00;99.90
21244;DHT22;10780;50.942;4.028;2023-06-04T04:16:04;12.90;99.90
21244;DHT22;10780;50.942;4.028;2023-06-04T04:18:34;12.80;99.90
21244;DHT22;10780;50.942;4.028;2023-06-04T04:21:01;12.80;99.90
21244;DHT22;10780;50.942;4.028;2023-06-04T04:23:27;13.00;99.90
21244;DHT22;10780;50.942;4.028;2023-06-04T04:25:53;13.20;99.90
21244;DHT22;10780;50.942;4.028;2023-06-04T04:28:19;13.20;99.90
21244;DHT22;10780;50.942;4.028;2023-06-04T04:30:46;13.20;99.90
21244;DHT22;10780;50.942;4.028;2023-06-04T04:33:12;13.20;99.90
21244;DHT22;10780;50.942;4.028;2023-06-04T04:35:41;13.30;99.90
21244;DHT22;10780;50.942;4.028;2023-06-04T04:38:08;13.40;99.90
21244;DHT22;10780;50.942;4.028;2023-06-04T04:40:35;13.50;99.90
21244;DHT22;10780;50.942;4.028;2023-06-04T04:43:00;13.60;99.90
21244;DHT22;10780;50.942;4.028;2023-06-04T04:45:26;13.70;99.90
21244;DHT22;10780;50.942;4.028;2023-06-04T04:47:52;13.80;99.90
21244;DHT22;10780;50.942;4.028;2023-06-04T04:50:17;13.80;99.90
21244;DHT22;10780;50.942;4.028;2023-06-04T04:52:43;13.90;99.90
21244;DHT22;10780;50.942;4.028;2023-06-04T04:55:09;14.00;99.90
21244;DHT22;10780;50.942;4.028;2023-06-04T04:57:35;14.00;99.90
21244;DHT22;10780;50.942;4.028;2023-06-04T05:00:02;13.90;99.90
21244;DHT22;10780;50.942;4.028;2023-06-04T05:02:30;14.00;99.90
21244;DHT22;10780;50.942;4.028;2023-06-04T05:04:55;14.00;99.90
21244;DHT22;10780;50.942;4.028;2023-06-04T05:07:21;14.10;99.90
21244;DHT22;10780;50.942;4.028;2023-06-04T05:09:48;14.10;99.90
21244;DHT22;10780;50.942;4.028;2023-06-04T05:12:14;14.20;99.90
21244;DHT22;10780;50.942;4.028;2023-06-04T05:14:40;14.20;99.90
21244;DHT22;10780;50.942;4.028;2023-06-04T05:17:07;14.40;99.90
21244;DHT22;10780;50.942;4.028;2023-06-04T05:19:36;14.50;99.90
21244;DHT22;10780;50.942;4.028;2023-06-04T05:22:03;14.70;99.90
21244;DHT22;10780;50.942;4.028;2023-06-04T05:24:28;14.70;99.90
21244;DHT22;10780;50.942;4.028;2023-06-04T05:26:55;14.80;99.90
21244;DHT22;10780;50.942;4.028;2023-06-04T05:29:22;14.80;99.90
21244;DHT22;10780;50.942;4.028;2023-06-04T05:31:48;14.90;99.90
21244;DHT22;10780;50.942;4.028;2023-06-04T05:34:13;14.90;99.90
21244;DHT22;10780;50.942;4.028;2023-06-04T05:36:42;14.90;99.90
21244;DHT22;10780;50.942;4.028;2023-06-04T05:39:08;14.90;99.90
21244;DHT22;10780;50.942;4.028;2023-06-04T05:41:34;14.90;99.90
21244;DHT22;10780;50.942;4.028;2023-06-04T05:44:01;14.80;99.90
21244;DHT22;10780;50.942;4.028;2023-06-04T05:46:26;14.90;99.90
21244;DHT22;10780;50.942;4.028;2023-06-04T05:48:52;14.90;99.90
21244;DHT22;10780;50.942;4.028;2023-06-04T05:51:19;15.10;99.90
21244;DHT22;10780;50.942;4.028;2023-06-04T05:53:45;15.10;99.90
21244;DHT22;10780;50.942;4.028;2023-06-04T05:56:11;15.10;99.90
21244;DHT22;10780;50.942;4.028;2023-06-04T05:58:37;15.10;99.90
21244;DHT22;10780;50.942;4.028;2023-06-04T06:01:03;15.20;99.90
21244;DHT22;10780;50.942;4.028;2023-06-04T06:03:29;15.30;99.90
21244;DHT22;10780;50.942;4.028;2023-06-04T06:05:54;15.40;99.90
21244;DHT22;10780;50.942;4.028;2023-06-04T06:08:22;15.50;99.90
21244;DHT22;10780;50.942;4.028;2023-06-04T06:10:48;15.40;99.90
21244;DHT22;10780;50.942;4.028;2023-06-04T06:13:14;15.40;99.90
21244;DHT22;10780;50.942;4.028;2023-06-04T06:15:40;15.50;99.90
21244;DHT22;10780;50.942;4.028;2023-06-04T06:18:06;15.60;99.90
21244;DHT22;10780;50.942;4.028;2023-06-04T06:20:31;15.80;99.90
21244;DHT22;10780;50.942;4.028;2023-06-04T06:22:57;15.90;99.90
21244;DHT22;10780;50.942;4.028;2023-06-04T06:25:23;16.00;99.90
21244;DHT22;10780;50.942;4.028;2023-06-04T06:27:49;16.10;99.90
21244;DHT22;10780;50.942;4.028;2023-06-04T06:30:15;16.10;99.90
21244;DHT22;10780;50.942;4.028;2023-06-04T06:32:41;16.10;99.90
21244;DHT22;10780;50.942;4.028;2023-06-04T06:35:07;16.10;99.90
21244;DHT22;10780;50.942;4.028;2023-06-04T06:37:33;16.10;99.90
21244;DHT22;10780;50.942;4.028;2023-06-04T06:39:59;16.20;99.90
21244;DHT22;10780;50.942;4.028;2023-06-04T06:42:24;16.30;99.90
21244;DHT22;10780;50.942;4.028;2023-06-04T06:44:50;16.30;99.90
21244;DHT22;10780;50.942;4.028;2023-06-04T06:47:16;16.30;99.90
21244;DHT22;10780;50.942;4.028;2023-06-04T06:49:42;16.30;99.90
21244;DHT22;10780;50.942;4.028;2023-06-04T06:52:08;16.50;99.90
21244;DHT22;10780;50.942;4.028;2023-06-04T06:54:33;16.50;99.90
21244;DHT22;10780;50.942;4.028;2023-06-04T06:56:59;16.60;99.90
21244;DHT22;10780;50.942;4.028;2023-06-04T06:59:25;16.70;99.90
21244;DHT22;10780;50.942;4.028;2023-06-04T07:01:51;16.80;99.90
21244;DHT22;10780;50.942;4.028;2023-06-04T07:04:16;17.00;99.90
21244;DHT22;10780;50.942;4.028;2023-06-04T07:06:43;17.10;99.90
21244;DHT22;10780;50.942;4.028;2023-06-04T07:09:08;17.10;99.90
21244;DHT22;10780;50.942;4.028;2023-06-04T07:11:34;17.20;99.90
21244;DHT22;10780;50.942;4.028;2023-06-04T07:14:00;17.30;99.90
21244;DHT22;10780;50.942;4.028;2023-06-04T07:16:28;17.30;99.90
21244;DHT22;10780;50.942;4.028;2023-06-04T07:18:54;17.40;99.90
21244;DHT22;10780;50.942;4.028;2023-06-04T07:21:19;17.40;99.90
21244;DHT22;10780;50.942;4.028;2023-06-04T07:23:47;17.40;99.90
21244;DHT22;10780;50.942;4.028;2023-06-04T07:26:15;17.50;99.90
21244;DHT22;10780;50.942;4.028;2023-06-04T07:28:41;17.60;99.90
21244;DHT22;10780;50.942;4.028;2023-06-04T07:31:07;17.70;99.90
21244;DHT22;10780;50.942;4.028;2023-06-04T07:33:32;17.90;99.90
21244;DHT22;10780;50.942;4.028;2023-06-04T07:35:58;18.00;99.90
21244;DHT22;10780;50.942;4.028;2023-06-04T07:38:24;18.10;99.90
21244;DHT22;10780;50.942;4.028;2023-06-04T07:40:50;18.20;99.90
21244;DHT22;10780;50.942;4.028;2023-06-04T07:43:16;18.20;99.90
21244;DHT22;10780;50.942;4.028;2023-06-04T07:45:41;18.20;99.90
21244;DHT22;10780;50.942;4.028;2023-06-04T07:48:09;18.20;99.90
21244;DHT22;10780;50.942;4.028;2023-06-04T07:50:36;18.30;99.90
21244;DHT22;10780;50.942;4.028;2023-06-04T07:53:02;18.30;99.90
21244;DHT22;10780;50.942;4.028;2023-06-04T07:55:27;18.30;99.90
21244;DHT22;10780;50.942;4.028;2023-06-04T07:57:53;18.40;99.90
21244;DHT22;10780;50.942;4.028;2023-06-04T08:00:19;18.60;99.90
21244;DHT22;10780;50.942;4.028;2023-06-04T08:02:45;18.70;99.90
21244;DHT22;10780;50.942;4.028;2023-06-04T08:05:10;18.70;99.90
21244;DHT22;10780;50.942;4.028;2023-06-04T08:07:39;18.80;99.90
21244;DHT22;10780;50.942;4.028;2023-06-04T08:10:05;19.00;99.90
21244;DHT22;10780;50.942;4.028;2023-06-04T08:12:31;19.20;99.90
21244;DHT22;10780;50.942;4.028;2023-06-04T08:14:57;19.30;99.90
21244;DHT22;10780;50.942;4.028;2023-06-04T08:17:23;19.40;99.90
21244;DHT22;10780;50.942;4.028;2023-06-04T08:19:49;19.40;99.90
21244;DHT22;10780;50.942;4.028;2023-06-04T08:22:15;19.40;99.90
21244;DHT22;10780;50.942;4.028;2023-06-04T08:24:40;19.30;99.90
21244;DHT22;10780;50.942;4.028;2023-06-04T08:27:06;19.40;99.90
21244;DHT22;10780;50.942;4.028;2023-06-04T08:29:34;19.50;99.90
21244;DHT22;10780;50.942;4.028;2023-06-04T08:32:01;19.60;99.90
21244;DHT22;10780;50.942;4.028;2023-06-04T08:34:26;19.70;99.90
21244;DHT22;10780;50.942;4.028;2023-06-04T08:36:52;19.80;99.90
21244;DHT22;10780;50.942;4.028;2023-06-04T08:39:17;20.00;99.90
21244;DHT22;10780;50.942;4.028;2023-06-04T08:41:49;20.10;99.90
21244;DHT22;10780;50.942;4.028;2023-06-04T08:44:17;20.20;99.90
21244;DHT22;10780;50.942;4.028;2023-06-04T08:46:44;20.30;99.90
21244;DHT22;10780;50.942;4.028;2023-06-04T08:49:12;20.20;99.90
21244;DHT22;10780;50.942;4.028;2023-06-04T08:51:38;20.20;99.90
21244;DHT22;10780;50.942;4.028;2023-06-04T08:54:05;20.10;99.90
21244;DHT22;10780;50.942;4.028;2023-06-04T08:56:31;20.10;99.90
21244;DHT22;10780;50.942;4.028;2023-06-04T08:59:01;20.20;99.90
21244;DHT22;10780;50.942;4.028;2023-06-04T09:01:27;20.30;99.90
21244;DHT22;10780;50.942;4.028;2023-06-04T09:03:53;20.40;99.90
21244;DHT22;10780;50.942;4.028;2023-06-04T09:06:25;20.40;99.90
21244;DHT22;10780;50.942;4.028;2023-06-04T09:08:51;20.50;99.90
21244;DHT22;10780;50.942;4.028;2023-06-04T09:11:19;20.60;99.90
21244;DHT22;10780;50.942;4.028;2023-06-04T09:13:47;20.70;99.90
21244;DHT22;10780;50.942;4.028;2023-06-04T09:16:13;20.80;99.90
21244;DHT22;10780;50.942;4.028;2023-06-04T09:18:38;20.90;99.90
21244;DHT22;10780;50.942;4.028;2023-06-04T09:21:06;20.90;99.90
21244;DHT22;10780;50.942;4.028;2023-06-04T09:23:44;21.00;99.90
21244;DHT22;10780;50.942;4.028;2023-06-04T09:26:10;21.00;99.90
21244;DHT22;10780;50.942;4.028;2023-06-04T09:28:40;21.10;99.90
21244;DHT22;10780;50.942;4.028;2023-06-04T09:31:09;21.20;99.90
21244;DHT22;10780;50.942;4.028;2023-06-04T09:33:46;21.30;99.90
21244;DHT22;10780;50.942;4.028;2023-06-04T09:36:12;21.40;99.90
21244;DHT22;10780;50.942;4.028;2023-06-04T09:38:38;21.20;99.90
21244;DHT22;10780;50.942;4.028;2023-06-04T09:41:05;21.20;99.90
21244;DHT22;10780;50.942;4.028;2023-06-04T09:43:36;21.30;99.90
21244;DHT22;10780;50.942;4.028;2023-06-04T09:46:15;21.40;99.90
21244;DHT22;10780;50.942;4.028;2023-06-04T09:48:42;21.50;99.90
21244;DHT22;10780;50.942;4.028;2023-06-04T09:53:33;21.90;99.90
21244;DHT22;10780;50.942;4.028;2023-06-04T09:56:01;22.00;99.90
21244;DHT22;10780;50.942;4.028;2023-06-04T09:58:28;21.80;99.90
21244;DHT22;10780;50.942;4.028;2023-06-04T10:01:07;21.80;99.90
21244;DHT22;10780;50.942;4.028;2023-06-04T10:03:36;21.90;99.90
21244;DHT22;10780;50.942;4.028;2023-06-04T10:06:06;21.90;99.90
21244;DHT22;10780;50.942;4.028;2023-06-04T10:08:32;21.90;99.90
21244;DHT22;10780;50.942;4.028;2023-06-04T10:11:00;21.90;99.90
21244;DHT22;10780;50.942;4.028;2023-06-04T10:13:29;21.90;99.90
21244;DHT22;10780;50.942;4.028;2023-06-04T10:15:59;22.00;99.90
21244;DHT22;10780;50.942;4.028;2023-06-04T10:18:27;22.10;99.90
21244;DHT22;10780;50.942;4.028;2023-06-04T10:20:57;22.20;99.90
21244;DHT22;10780;50.942;4.028;2023-06-04T10:23:24;22.20;99.90
21244;DHT22;10780;50.942;4.028;2023-06-04T10:25:51;22.20;99.90
21244;DHT22;10780;50.942;4.028;2023-06-04T10:28:20;22.20;99.90
21244;DHT22;10780;50.942;4.028;2023-06-04T10:30:47;22.30;99.90
21244;DHT22;10780;50.942;4.028;2023-06-04T10:33:19;22.30;99.90
21244;DHT22;10780;50.942;4.028;2023-06-04T10:35:52;22.40;99.90
21244;DHT22;10780;50.942;4.028;2023-06-04T10:38:18;22.40;99.90
21244;DHT22;10780;50.942;4.028;2023-06-04T10:40:46;22.40;99.90
21244;DHT22;10780;50.942;4.028;2023-06-04T10:43:13;22.40;99.80
21244;DHT22;10780;50.942;4.028;2023-06-04T10:45:40;22.40;99.30
21244;DHT22;10780;50.942;4.028;2023-06-04T10:48:07;22.50;99.60
21244;DHT22;10780;50.942;4.028;2023-06-04T10:50:34;22.60;99.10
21244;DHT22;10780;50.942;4.028;2023-06-04T10:53:00;22.70;98.70
21244;DHT22;10780;50.942;4.028;2023-06-04T10:55:30;22.60;98.90
21244;DHT22;10780;50.942;4.028;2023-06-04T10:57:58;22.70;98.60
21244;DHT22;10780;50.942;4.028;2023-06-04T11:00:45;22.90;98.40
21244;DHT22;10780;50.942;4.028;2023-06-04T11:03:12;23.00;97.40
21244;DHT22;10780;50.942;4.028;2023-06-04T11:05:39;22.90;97.80
21244;DHT22;10780;50.942;4.028;2023-06-04T11:08:06;23.00;97.50
21244;DHT22;10780;50.942;4.028;2023-06-04T11:10:45;22.80;97.10
21244;DHT22;10780;50.942;4.028;2023-06-04T11:13:11;22.70;96.90
21244;DHT22;10780;50.942;4.028;2023-06-04T11:15:45;22.70;96.80
21244;DHT22;10780;50.942;4.028;2023-06-04T11:18:19;22.80;96.00
21244;DHT22;10780;50.942;4.028;2023-06-04T11:20:47;23.00;96.10
21244;DHT22;10780;50.942;4.028;2023-06-04T11:23:14;23.10;96.00
21244;DHT22;10780;50.942;4.028;2023-06-04T11:25:40;23.30;95.20
21244;DHT22;10780;50.942;4.028;2023-06-04T11:28:16;23.30;95.10
21244;DHT22;10780;50.942;4.028;2023-06-04T11:31:02;23.10;94.80
21244;DHT22;10780;50.942;4.028;2023-06-04T11:33:49;23.00;95.00
21244;DHT22;10780;50.942;4.028;2023-06-04T11:36:28;23.10;94.90
21244;DHT22;10780;50.942;4.028;2023-06-04T11:38:58;23.10;93.50
21244;DHT22;10780;50.942;4.028;2023-06-04T11:41:28;23.00;92.40
21244;DHT22;10780;50.942;4.028;2023-06-04T11:43:56;23.00;92.60
21244;DHT22;10780;50.942;4.028;2023-06-04T11:46:22;23.10;92.80
21244;DHT22;10780;50.942;4.028;2023-06-04T11:48:50;23.10;92.50
21244;DHT22;10780;50.942;4.028;2023-06-04T11:51:17;23.20;93.30
21244;DHT22;10780;50.942;4.028;2023-06-04T11:53:43;23.40;94.00
21244;DHT22;10780;50.942;4.028;2023-06-04T11:56:08;23.70;93.20
21244;DHT22;10780;50.942;4.028;2023-06-04T11:58:34;23.80;92.70
21244;DHT22;10780;50.942;4.028;2023-06-04T12:01:00;23.50;91.00
21244;DHT22;10780;50.942;4.028;2023-06-04T12:06:15;23.30;91.70
21244;DHT22;10780;50.942;4.028;2023-06-04T12:08:52;23.40;92.00
21244;DHT22;10780;50.942;4.028;2023-06-04T12:11:32;23.50;91.50
21244;DHT22;10780;50.942;4.028;2023-06-04T12:14:00;23.60;91.00
21244;DHT22;10780;50.942;4.028;2023-06-04T12:16:26;23.60;90.90
21244;DHT22;10780;50.942;4.028;2023-06-04T12:18:52;23.80;90.10
21244;DHT22;10780;50.942;4.028;2023-06-04T12:21:23;23.80;89.70
21244;DHT22;10780;50.942;4.028;2023-06-04T12:24:12;23.50;90.00
21244;DHT22;10780;50.942;4.028;2023-06-04T12:26:39;23.50;90.90
21244;DHT22;10780;50.942;4.028;2023-06-04T12:29:14;23.60;90.80
21244;DHT22;10780;50.942;4.028;2023-06-04T12:31:41;23.80;90.20
21244;DHT22;10780;50.942;4.028;2023-06-04T12:34:07;24.00;89.20
21244;DHT22;10780;50.942;4.028;2023-06-04T12:36:33;24.00;87.70
21244;DHT22;10780;50.942;4.028;2023-06-04T12:39:01;23.80;86.20
21244;DHT22;10780;50.942;4.028;2023-06-04T12:41:28;23.50;85.70
21244;DHT22;10780;50.942;4.028;2023-06-04T12:43:54;23.60;87.20
21244;DHT22;10780;50.942;4.028;2023-06-04T12:46:20;23.90;88.90
21244;DHT22;10780;50.942;4.028;2023-06-04T12:48:47;23.90;88.80
21244;DHT22;10780;50.942;4.028;2023-06-04T12:51:13;24.20;87.80
21244;DHT22;10780;50.942;4.028;2023-06-04T12:53:40;24.20;87.60
21244;DHT22;10780;50.942;4.028;2023-06-04T12:56:05;24.10;87.50
21244;DHT22;10780;50.942;4.028;2023-06-04T12:58:31;24.20;87.80
21244;DHT22;10780;50.942;4.028;2023-06-04T13:00:57;24.30;85.70
21244;DHT22;10780;50.942;4.028;2023-06-04T13:03:23;24.40;84.30
21244;DHT22;10780;50.942;4.028;2023-06-04T13:05:48;24.50;83.60
21244;DHT22;10780;50.942;4.028;2023-06-04T13:08:16;24.60;82.40
21244;DHT22;10780;50.942;4.028;2023-06-04T13:10:42;24.60;81.80
21244;DHT22;10780;50.942;4.028;2023-06-04T13:13:07;24.70;81.30
21244;DHT22;10780;50.942;4.028;2023-06-04T13:15:33;24.50;80.00
21244;DHT22;10780;50.942;4.028;2023-06-04T13:17:59;24.50;80.80
21244;DHT22;10780;50.942;4.028;2023-06-04T13:20:25;24.30;81.60
21244;DHT22;10780;50.942;4.028;2023-06-04T13:22:50;24.40;82.00
21244;DHT22;10780;50.942;4.028;2023-06-04T13:25:16;24.50;83.10
21244;DHT22;10780;50.942;4.028;2023-06-04T13:27:42;24.60;82.50
21244;DHT22;10780;50.942;4.028;2023-06-04T13:30:08;24.70;81.80
21244;DHT22;10780;50.942;4.028;2023-06-04T13:32:34;24.90;82.00
21244;DHT22;10780;50.942;4.028;2023-06-04T13:35:00;24.70;80.80
21244;DHT22;10780;50.942;4.028;2023-06-04T13:37:25;24.70;81.60
21244;DHT22;10780;50.942;4.028;2023-06-04T13:39:51;24.80;81.40
21244;DHT22;10780;50.942;4.028;2023-06-04T13:42:17;24.90;80.30
21244;DHT22;10780;50.942;4.028;2023-06-04T13:44:42;25.10;79.30
21244;DHT22;10780;50.942;4.028;2023-06-04T13:47:08;25.40;79.60
21244;DHT22;10780;50.942;4.028;2023-06-04T13:49:34;25.50;79.40
21244;DHT22;10780;50.942;4.028;2023-06-04T13:52:00;25.60;79.60
21244;DHT22;10780;50.942;4.028;2023-06-04T13:54:26;25.70;78.80
21244;DHT22;10780;50.942;4.028;2023-06-04T13:56:52;25.70;78.50
21244;DHT22;10780;50.942;4.028;2023-06-04T13:59:17;25.70;77.50
21244;DHT22;10780;50.942;4.028;2023-06-04T14:01:43;25.60;78.10
21244;DHT22;10780;50.942;4.028;2023-06-04T14:04:08;25.70;78.00
21244;DHT22;10780;50.942;4.028;2023-06-04T14:06:37;25.70;78.00
21244;DHT22;10780;50.942;4.028;2023-06-04T14:09:03;25.90;78.20
21244;DHT22;10780;50.942;4.028;2023-06-04T14:11:29;26.30;78.30
21244;DHT22;10780;50.942;4.028;2023-06-04T14:13:55;26.50;76.30
21244;DHT22;10780;50.942;4.028;2023-06-04T14:16:21;27.20;75.60
21244;DHT22;10780;50.942;4.028;2023-06-04T14:18:47;27.90;73.30
21244;DHT22;10780;50.942;4.028;2023-06-04T14:21:12;28.70;71.70
21244;DHT22;10780;50.942;4.028;2023-06-04T14:23:38;29.20;70.70
21244;DHT22;10780;50.942;4.028;2023-06-04T14:26:04;30.50;69.10
21244;DHT22;10780;50.942;4.028;2023-06-04T14:28:29;31.10;66.30
21244;DHT22;10780;50.942;4.028;2023-06-04T14:30:55;32.10;64.00
21244;DHT22;10780;50.942;4.028;2023-06-04T14:33:21;31.50;63.90
21244;DHT22;10780;50.942;4.028;2023-06-04T14:35:47;31.20;63.40
21244;DHT22;10780;50.942;4.028;2023-06-04T14:38:13;31.70;61.10
21244;DHT22;10780;50.942;4.028;2023-06-04T14:40:39;32.00;59.60
21244;DHT22;10780;50.942;4.028;2023-06-04T14:43:07;31.70;59.60
21244;DHT22;10780;50.942;4.028;2023-06-04T14:45:33;31.40;59.80
21244;DHT22;10780;50.942;4.028;2023-06-04T14:47:58;31.60;58.90
21244;DHT22;10780;50.942;4.028;2023-06-04T14:50:24;31.50;58.60
21244;DHT22;10780;50.942;4.028;2023-06-04T14:52:50;31.40;57.80
21244;DHT22;10780;50.942;4.028;2023-06-04T14:55:15;31.60;58.00
21244;DHT22;10780;50.942;4.028;2023-06-04T14:57:41;31.70;57.80
21244;DHT22;10780;50.942;4.028;2023-06-04T15:00:07;32.20;56.70
21244;DHT22;10780;50.942;4.028;2023-06-04T15:02:33;31.70;56.10
21244;DHT22;10780;50.942;4.028;2023-06-04T15:04:58;31.80;55.80
21244;DHT22;10780;50.942;4.028;2023-06-04T15:07:24;32.30;54.90
21244;DHT22;10780;50.942;4.028;2023-06-04T15:09:50;31.70;54.60
21244;DHT22;10780;50.942;4.028;2023-06-04T15:12:16;31.30;55.70
21244;DHT22;10780;50.942;4.028;2023-06-04T15:14:43;31.40;55.40
21244;DHT22;10780;50.942;4.028;2023-06-04T15:17:09;31.40;55.30
21244;DHT22;10780;50.942;4.028;2023-06-04T15:19:34;31.40;55.00
21244;DHT22;10780;50.942;4.028;2023-06-04T15:22:00;30.60;55.90
21244;DHT22;10780;50.942;4.028;2023-06-04T15:24:26;31.50;55.50
21244;DHT22;10780;50.942;4.028;2023-06-04T15:26:52;32.60;54.90
21244;DHT22;10780;50.942;4.028;2023-06-04T15:29:17;33.70;54.70
21244;DHT22;10780;50.942;4.028;2023-06-04T15:31:43;33.10;52.10
21244;DHT22;10780;50.942;4.028;2023-06-04T15:34:09;33.00;51.90
21244;DHT22;10780;50.942;4.028;2023-06-04T15:36:34;32.90;52.00